sensor_id;sensor_type;location;lat;lon;timestamp;pressure;altitude;pressure_sealevel;temperature;humidity
75089;BME280;63673;49.928;8.150;2022-12-01T00:00:46;997.78;;;5.04;100
75089;BME280;63673;49.928;8.150;2022-12-01T00:01:48;997.8;;;5.02;100
75089;BME280;63673;49.928;8.150;2022-12-01T00:02:50;997.83;;;5.01;100
75089;BME280;63673;49.928;8.150;2022-12-01T00:03:52;997.78;;;4.99;100
75089;BME280;63673;49.928;8.150;2022-12-01T00:04:53;997.8;;;4.98;100
75089;BME280;63673;49.928;8.150;2022-12-01T00:05:57;997.81;;;4.96;100
75089;BME280;63673;49.928;8.150;2022-12-01T00:06:57;997.79;;;4.96;100
75089;BME280;63673;49.928;8.150;2022-12-01T00:07:59;997.8;;;4.94;100
75089;BME280;63673;49.928;8.150;2022-12-01T00:09:00;997.8;;;4.93;100
75089;BME280;63673;49.928;8.150;2022-12-01T00:10:02;997.8;;;4.89;100
75089;BME280;63673;49.928;8.150;2022-12-01T00:11:04;997.81;;;4.89;100
75089;BME280;63673;49.928;8.150;2022-12-01T00:12:05;997.79;;;4.86;100
75089;BME280;63673;49.928;8.150;2022-12-01T00:13:07;997.81;;;4.85;100
75089;BME280;63673;49.928;8.150;2022-12-01T00:14:09;997.83;;;4.83;100
75089;BME280;63673;49.928;8.150;2022-12-01T00:15:11;997.84;;;4.83;100
75089;BME280;63673;49.928;8.150;2022-12-01T00:16:13;997.76;;;4.81;100
75089;BME280;63673;49.928;8.150;2022-12-01T00:17:14;997.81;;;4.79;100
75089;BME280;63673;49.928;8.150;2022-12-01T00:18:16;997.82;;;4.77;100
75089;BME280;63673;49.928;8.150;2022-12-01T00:19:17;997.79;;;4.74;100
75089;BME280;63673;49.928;8.150;2022-12-01T00:20:19;997.79;;;4.74;100
75089;BME280;63673;49.928;8.150;2022-12-01T00:21:22;997.83;;;4.72;100
75089;BME280;63673;49.928;8.150;2022-12-01T00:22:23;997.83;;;4.72;100
75089;BME280;63673;49.928;8.150;2022-12-01T00:23:24;997.87;;;4.71;100
75089;BME280;63673;49.928;8.150;2022-12-01T00:24:26;997.87;;;4.7;100
75089;BME280;63673;49.928;8.150;2022-12-01T00:25:28;997.86;;;4.7;100
75089;BME280;63673;49.928;8.150;2022-12-01T00:26:30;997.86;;;4.69;100
75089;BME280;63673;49.928;8.150;2022-12-01T00:27:31;997.85;;;4.68;100
75089;BME280;63673;49.928;8.150;2022-12-01T00:28:33;997.81;;;4.68;100
75089;BME280;63673;49.928;8.150;2022-12-01T00:29:35;997.82;;;4.67;100
75089;BME280;63673;49.928;8.150;2022-12-01T00:30:37;997.85;;;4.68;100
75089;BME280;63673;49.928;8.150;2022-12-01T00:31:38;997.81;;;4.67;100
75089;BME280;63673;49.928;8.150;2022-12-01T00:32:40;997.81;;;4.67;100
75089;BME280;63673;49.928;8.150;2022-12-01T00:33:42;997.83;;;4.67;100
75089;BME280;63673;49.928;8.150;2022-12-01T00:34:43;997.83;;;4.66;100
75089;BME280;63673;49.928;8.150;2022-12-01T00:35:45;997.81;;;4.66;100
75089;BME280;63673;49.928;8.150;2022-12-01T00:36:47;997.85;;;4.65;100
75089;BME280;63673;49.928;8.150;2022-12-01T00:37:49;997.88;;;4.64;100
75089;BME280;63673;49.928;8.150;2022-12-01T00:38:51;997.9;;;4.63;100
75089;BME280;63673;49.928;8.150;2022-12-01T00:39:52;997.8;;;4.62;100
75089;BME280;63673;49.928;8.150;2022-12-01T00:40:54;997.86;;;4.61;100
75089;BME280;63673;49.928;8.150;2022-12-01T00:41:56;997.84;;;4.6;100
75089;BME280;63673;49.928;8.150;2022-12-01T00:42:57;997.82;;;4.6;100
75089;BME280;63673;49.928;8.150;2022-12-01T00:43:59;997.87;;;4.6;100
75089;BME280;63673;49.928;8.150;2022-12-01T00:45:01;997.83;;;4.59;100
75089;BME280;63673;49.928;8.150;2022-12-01T00:46:03;997.86;;;4.59;100
75089;BME280;63673;49.928;8.150;2022-12-01T00:47:04;997.83;;;4.58;100
75089;BME280;63673;49.928;8.150;2022-12-01T00:48:06;997.85;;;4.58;100
75089;BME280;63673;49.928;8.150;2022-12-01T00:49:09;997.76;;;4.57;100
75089;BME280;63673;49.928;8.150;2022-12-01T00:50:10;997.78;;;4.58;100
75089;BME280;63673;49.928;8.150;2022-12-01T00:51:11;997.8;;;4.57;100
75089;BME280;63673;49.928;8.150;2022-12-01T00:52:13;997.77;;;4.57;100
75089;BME280;63673;49.928;8.150;2022-12-01T00:53:15;997.82;;;4.57;100
75089;BME280;63673;49.928;8.150;2022-12-01T00:54:16;997.79;;;4.56;100
75089;BME280;63673;49.928;8.150;2022-12-01T00:55:18;997.79;;;4.55;100
75089;BME280;63673;49.928;8.150;2022-12-01T00:56:20;997.87;;;4.54;100
75089;BME280;63673;49.928;8.150;2022-12-01T00:57:22;997.81;;;4.55;100
75089;BME280;63673;49.928;8.150;2022-12-01T00:58:24;997.79;;;4.54;100
75089;BME280;63673;49.928;8.150;2022-12-01T00:59:25;997.83;;;4.54;100
75089;BME280;63673;49.928;8.150;2022-12-01T01:00:27;997.8;;;4.53;100
75089;BME280;63673;49.928;8.150;2022-12-01T01:01:28;997.81;;;4.53;100
75089;BME280;63673;49.928;8.150;2022-12-01T01:02:30;997.86;;;4.53;100
75089;BME280;63673;49.928;8.150;2022-12-01T01:03:32;997.82;;;4.53;100
75089;BME280;63673;49.928;8.150;2022-12-01T01:04:34;997.84;;;4.51;100
75089;BME280;63673;49.928;8.150;2022-12-01T01:05:35;997.82;;;4.5;100
75089;BME280;63673;49.928;8.150;2022-12-01T01:06:37;997.82;;;4.5;100
75089;BME280;63673;49.928;8.150;2022-12-01T01:07:39;997.86;;;4.49;100
75089;BME280;63673;49.928;8.150;2022-12-01T01:08:41;997.82;;;4.49;100
75089;BME280;63673;49.928;8.150;2022-12-01T01:09:42;997.84;;;4.48;100
75089;BME280;63673;49.928;8.150;2022-12-01T01:10:45;997.82;;;4.47;100
75089;BME280;63673;49.928;8.150;2022-12-01T01:11:46;997.84;;;4.47;100
75089;BME280;63673;49.928;8.150;2022-12-01T01:12:48;997.88;;;4.47;100
75089;BME280;63673;49.928;8.150;2022-12-01T01:13:49;997.89;;;4.46;100
75089;BME280;63673;49.928;8.150;2022-12-01T01:14:51;997.85;;;4.46;100
75089;BME280;63673;49.928;8.150;2022-12-01T01:15:57;997.91;;;4.46;100
75089;BME280;63673;49.928;8.150;2022-12-01T01:16:55;997.91;;;4.45;100
75089;BME280;63673;49.928;8.150;2022-12-01T01:17:56;997.96;;;4.45;100
75089;BME280;63673;49.928;8.150;2022-12-01T01:18:58;997.84;;;4.45;100
75089;BME280;63673;49.928;8.150;2022-12-01T01:20:00;997.97;;;4.45;100
75089;BME280;63673;49.928;8.150;2022-12-01T01:21:03;997.96;;;4.44;100
75089;BME280;63673;49.928;8.150;2022-12-01T01:22:03;997.98;;;4.44;100
75089;BME280;63673;49.928;8.150;2022-12-01T01:23:05;998.02;;;4.41;100
75089;BME280;63673;49.928;8.150;2022-12-01T01:24:07;997.99;;;4.43;100
75089;BME280;63673;49.928;8.150;2022-12-01T01:25:08;998.02;;;4.41;100
75089;BME280;63673;49.928;8.150;2022-12-01T01:26:11;998.03;;;4.41;100
75089;BME280;63673;49.928;8.150;2022-12-01T01:27:12;998.01;;;4.41;100
75089;BME280;63673;49.928;8.150;2022-12-01T01:28:14;998.08;;;4.41;100
75089;BME280;63673;49.928;8.150;2022-12-01T01:29:15;998.1;;;4.39;100
75089;BME280;63673;49.928;8.150;2022-12-01T01:30:17;998.14;;;4.37;100
75089;BME280;63673;49.928;8.150;2022-12-01T01:31:20;998.13;;;4.38;100
75089;BME280;63673;49.928;8.150;2022-12-01T01:32:21;998.15;;;4.37;100
75089;BME280;63673;49.928;8.150;2022-12-01T01:33:22;998.15;;;4.37;100
75089;BME280;63673;49.928;8.150;2022-12-01T01:34:24;998.16;;;4.36;100
75089;BME280;63673;49.928;8.150;2022-12-01T01:35:26;998.15;;;4.36;100
75089;BME280;63673;49.928;8.150;2022-12-01T01:36:28;998.14;;;4.35;100
75089;BME280;63673;49.928;8.150;2022-12-01T01:37:29;998.18;;;4.35;100
75089;BME280;63673;49.928;8.150;2022-12-01T01:38:31;998.13;;;4.35;100
75089;BME280;63673;49.928;8.150;2022-12-01T01:39:33;998.1;;;4.34;100
75089;BME280;63673;49.928;8.150;2022-12-01T01:40:40;998.16;;;4.34;100
75089;BME280;63673;49.928;8.150;2022-12-01T01:41:36;998.13;;;4.35;100
75089;BME280;63673;49.928;8.150;2022-12-01T01:42:38;998.14;;;4.35;100
75089;BME280;63673;49.928;8.150;2022-12-01T01:43:41;998.14;;;4.34;100
75089;BME280;63673;49.928;8.150;2022-12-01T01:44:45;998.18;;;4.29;100
75089;BME280;63673;49.928;8.150;2022-12-01T01:45:43;998.18;;;4.23;100
75089;BME280;63673;49.928;8.150;2022-12-01T01:46:45;998.17;;;4.21;100
75089;BME280;63673;49.928;8.150;2022-12-01T01:47:47;998.18;;;4.2;100
75089;BME280;63673;49.928;8.150;2022-12-01T01:48:49;998.23;;;4.18;100
75089;BME280;63673;49.928;8.150;2022-12-01T01:49:50;998.21;;;4.16;100
75089;BME280;63673;49.928;8.150;2022-12-01T01:50:52;998.24;;;4.14;100
75089;BME280;63673;49.928;8.150;2022-12-01T01:51:53;998.22;;;4.1;100
75089;BME280;63673;49.928;8.150;2022-12-01T01:52:57;998.2;;;4.09;100
75089;BME280;63673;49.928;8.150;2022-12-01T01:53:58;998.21;;;4.06;100
75089;BME280;63673;49.928;8.150;2022-12-01T01:54:59;998.24;;;4.06;100
75089;BME280;63673;49.928;8.150;2022-12-01T01:56:00;998.22;;;4.04;100
75089;BME280;63673;49.928;8.150;2022-12-01T01:57:02;998.25;;;4.02;100
75089;BME280;63673;49.928;8.150;2022-12-01T01:58:05;998.29;;;3.99;100
75089;BME280;63673;49.928;8.150;2022-12-01T01:59:06;998.23;;;3.99;100
75089;BME280;63673;49.928;8.150;2022-12-01T02:00:08;998.25;;;3.98;100
75089;BME280;63673;49.928;8.150;2022-12-01T02:01:09;998.25;;;3.97;100
75089;BME280;63673;49.928;8.150;2022-12-01T02:02:11;998.3;;;3.96;100
75089;BME280;63673;49.928;8.150;2022-12-01T02:03:14;998.25;;;3.95;100
75089;BME280;63673;49.928;8.150;2022-12-01T02:04:14;998.3;;;3.93;100
75089;BME280;63673;49.928;8.150;2022-12-01T02:05:17;998.32;;;3.93;100
75089;BME280;63673;49.928;8.150;2022-12-01T02:06:18;998.27;;;3.92;100
75089;BME280;63673;49.928;8.150;2022-12-01T02:07:19;998.25;;;3.9;100
75089;BME280;63673;49.928;8.150;2022-12-01T02:08:21;998.22;;;3.9;100
75089;BME280;63673;49.928;8.150;2022-12-01T02:09:23;998.23;;;3.89;100
75089;BME280;63673;49.928;8.150;2022-12-01T02:10:26;998.24;;;3.89;100
75089;BME280;63673;49.928;8.150;2022-12-01T02:11:38;998.27;;;3.87;100
75089;BME280;63673;49.928;8.150;2022-12-01T02:12:32;998.26;;;3.86;100
75089;BME280;63673;49.928;8.150;2022-12-01T02:13:31;998.25;;;3.85;100
75089;BME280;63673;49.928;8.150;2022-12-01T02:14:34;998.23;;;3.83;100
75089;BME280;63673;49.928;8.150;2022-12-01T02:15:55;998.21;;;3.83;100
75089;BME280;63673;49.928;8.150;2022-12-01T02:16:57;998.29;;;3.81;100
75089;BME280;63673;49.928;8.150;2022-12-01T02:18:00;998.25;;;3.8;100
75089;BME280;63673;49.928;8.150;2022-12-01T02:19:00;998.27;;;3.79;100
75089;BME280;63673;49.928;8.150;2022-12-01T02:20:11;998.29;;;3.76;100
75089;BME280;63673;49.928;8.150;2022-12-01T02:21:08;998.22;;;3.76;100
75089;BME280;63673;49.928;8.150;2022-12-01T02:22:08;998.25;;;3.74;100
75089;BME280;63673;49.928;8.150;2022-12-01T02:23:14;998.24;;;3.73;100
75089;BME280;63673;49.928;8.150;2022-12-01T02:25:15;998.21;;;3.7;100
75089;BME280;63673;49.928;8.150;2022-12-01T02:26:15;998.28;;;3.71;100
75089;BME280;63673;49.928;8.150;2022-12-01T02:27:15;998.28;;;3.7;100
75089;BME280;63673;49.928;8.150;2022-12-01T02:28:20;998.32;;;3.68;100
75089;BME280;63673;49.928;8.150;2022-12-01T02:29:30;998.34;;;3.66;100
75089;BME280;63673;49.928;8.150;2022-12-01T02:30:25;998.31;;;3.65;100
75089;BME280;63673;49.928;8.150;2022-12-01T02:31:20;998.3;;;3.64;100
75089;BME280;63673;49.928;8.150;2022-12-01T02:32:22;998.31;;;3.6;100
75089;BME280;63673;49.928;8.150;2022-12-01T02:33:24;998.3;;;3.57;100
75089;BME280;63673;49.928;8.150;2022-12-01T02:34:27;998.29;;;3.57;100
75089;BME280;63673;49.928;8.150;2022-12-01T02:35:28;998.28;;;3.56;100
75089;BME280;63673;49.928;8.150;2022-12-01T02:36:31;998.29;;;3.54;100
75089;BME280;63673;49.928;8.150;2022-12-01T02:37:31;998.29;;;3.54;100
75089;BME280;63673;49.928;8.150;2022-12-01T02:38:33;998.32;;;3.53;100
75089;BME280;63673;49.928;8.150;2022-12-01T02:39:34;998.29;;;3.51;100
75089;BME280;63673;49.928;8.150;2022-12-01T02:40:37;998.27;;;3.5;100
75089;BME280;63673;49.928;8.150;2022-12-01T02:41:38;998.33;;;3.49;100
75089;BME280;63673;49.928;8.150;2022-12-01T02:42:40;998.34;;;3.49;100
75089;BME280;63673;49.928;8.150;2022-12-01T02:43:42;998.29;;;3.46;100
75089;BME280;63673;49.928;8.150;2022-12-01T02:44:42;998.31;;;3.45;100
75089;BME280;63673;49.928;8.150;2022-12-01T02:45:45;998.31;;;3.46;100
75089;BME280;63673;49.928;8.150;2022-12-01T02:46:46;998.31;;;3.46;100
75089;BME280;63673;49.928;8.150;2022-12-01T02:47:48;998.29;;;3.44;100
75089;BME280;63673;49.928;8.150;2022-12-01T02:48:50;998.34;;;3.44;100
75089;BME280;63673;49.928;8.150;2022-12-01T02:49:51;998.32;;;3.43;100
75089;BME280;63673;49.928;8.150;2022-12-01T02:50:53;998.33;;;3.43;100
75089;BME280;63673;49.928;8.150;2022-12-01T02:51:54;998.28;;;3.43;100
75089;BME280;63673;49.928;8.150;2022-12-01T02:52:56;998.32;;;3.42;100
75089;BME280;63673;49.928;8.150;2022-12-01T02:53:59;998.33;;;3.4;100
75089;BME280;63673;49.928;8.150;2022-12-01T02:55:00;998.27;;;3.4;100
75089;BME280;63673;49.928;8.150;2022-12-01T02:56:04;998.33;;;3.41;100
75089;BME280;63673;49.928;8.150;2022-12-01T02:57:02;998.36;;;3.41;100
75089;BME280;63673;49.928;8.150;2022-12-01T02:58:11;998.35;;;3.39;100
75089;BME280;63673;49.928;8.150;2022-12-01T02:59:07;998.37;;;3.38;100
75089;BME280;63673;49.928;8.150;2022-12-01T03:00:10;998.38;;;3.38;100
75089;BME280;63673;49.928;8.150;2022-12-01T03:01:15;998.33;;;3.37;100
75089;BME280;63673;49.928;8.150;2022-12-01T03:02:12;998.28;;;3.36;100
75089;BME280;63673;49.928;8.150;2022-12-01T03:03:21;998.37;;;3.34;100
75089;BME280;63673;49.928;8.150;2022-12-01T03:04:22;998.35;;;3.35;100
75089;BME280;63673;49.928;8.150;2022-12-01T03:05:17;998.37;;;3.35;100
75089;BME280;63673;49.928;8.150;2022-12-01T03:06:21;998.37;;;3.34;100
75089;BME280;63673;49.928;8.150;2022-12-01T03:07:33;998.34;;;3.34;100
75089;BME280;63673;49.928;8.150;2022-12-01T03:08:25;998.34;;;3.31;100
75089;BME280;63673;49.928;8.150;2022-12-01T03:09:24;998.33;;;3.32;100
75089;BME280;63673;49.928;8.150;2022-12-01T03:10:27;998.31;;;3.31;100
75089;BME280;63673;49.928;8.150;2022-12-01T03:11:29;998.33;;;3.3;100
75089;BME280;63673;49.928;8.150;2022-12-01T03:12:32;998.33;;;3.28;100
75089;BME280;63673;49.928;8.150;2022-12-01T03:13:33;998.33;;;3.28;100
75089;BME280;63673;49.928;8.150;2022-12-01T03:14:34;998.31;;;3.27;100
75089;BME280;63673;49.928;8.150;2022-12-01T03:15:35;998.3;;;3.26;100
75089;BME280;63673;49.928;8.150;2022-12-01T03:16:38;998.27;;;3.25;100
75089;BME280;63673;49.928;8.150;2022-12-01T03:17:39;998.31;;;3.23;100
75089;BME280;63673;49.928;8.150;2022-12-01T03:18:41;998.34;;;3.22;100
75089;BME280;63673;49.928;8.150;2022-12-01T03:19:42;998.3;;;3.23;100
75089;BME280;63673;49.928;8.150;2022-12-01T03:20:45;998.35;;;3.22;100
75089;BME280;63673;49.928;8.150;2022-12-01T03:21:46;998.32;;;3.22;100
75089;BME280;63673;49.928;8.150;2022-12-01T03:22:47;998.28;;;3.21;100
75089;BME280;63673;49.928;8.150;2022-12-01T03:23:49;998.27;;;3.21;100
75089;BME280;63673;49.928;8.150;2022-12-01T03:24:49;998.28;;;3.21;100
75089;BME280;63673;49.928;8.150;2022-12-01T03:25:52;998.31;;;3.17;100
75089;BME280;63673;49.928;8.150;2022-12-01T03:26:54;998.31;;;3.17;100
75089;BME280;63673;49.928;8.150;2022-12-01T03:27:55;998.35;;;3.16;100
75089;BME280;63673;49.928;8.150;2022-12-01T03:28:57;998.32;;;3.13;100
75089;BME280;63673;49.928;8.150;2022-12-01T03:29:59;998.31;;;3.12;100
75089;BME280;63673;49.928;8.150;2022-12-01T03:31:02;998.35;;;3.1;100
75089;BME280;63673;49.928;8.150;2022-12-01T03:32:03;998.35;;;3.11;100
75089;BME280;63673;49.928;8.150;2022-12-01T03:33:05;998.32;;;3.11;100
75089;BME280;63673;49.928;8.150;2022-12-01T03:34:07;998.34;;;3.1;100
75089;BME280;63673;49.928;8.150;2022-12-01T03:35:08;998.3;;;3.09;100
75089;BME280;63673;49.928;8.150;2022-12-01T03:36:10;998.28;;;3.09;100
75089;BME280;63673;49.928;8.150;2022-12-01T03:37:12;998.36;;;3.07;100
75089;BME280;63673;49.928;8.150;2022-12-01T03:38:13;998.31;;;3.07;100
75089;BME280;63673;49.928;8.150;2022-12-01T03:39:16;998.32;;;3.05;100
75089;BME280;63673;49.928;8.150;2022-12-01T03:40:16;998.33;;;3.04;100
75089;BME280;63673;49.928;8.150;2022-12-01T03:41:18;998.33;;;3.05;100
75089;BME280;63673;49.928;8.150;2022-12-01T03:42:21;998.35;;;3.03;100
75089;BME280;63673;49.928;8.150;2022-12-01T03:43:22;998.32;;;3.02;100
75089;BME280;63673;49.928;8.150;2022-12-01T03:44:24;998.3;;;3.02;100
75089;BME280;63673;49.928;8.150;2022-12-01T03:45:25;998.37;;;3;100
75089;BME280;63673;49.928;8.150;2022-12-01T03:46:28;998.36;;;3;100
75089;BME280;63673;49.928;8.150;2022-12-01T03:47:29;998.38;;;2.99;100
75089;BME280;63673;49.928;8.150;2022-12-01T03:48:30;998.36;;;2.99;100
75089;BME280;63673;49.928;8.150;2022-12-01T03:49:32;998.38;;;2.98;100
75089;BME280;63673;49.928;8.150;2022-12-01T03:50:34;998.36;;;2.97;100
75089;BME280;63673;49.928;8.150;2022-12-01T03:51:38;998.38;;;2.96;100
75089;BME280;63673;49.928;8.150;2022-12-01T03:52:37;998.36;;;2.95;100
75089;BME280;63673;49.928;8.150;2022-12-01T03:53:42;998.39;;;2.94;100
75089;BME280;63673;49.928;8.150;2022-12-01T03:54:41;998.37;;;2.94;100
75089;BME280;63673;49.928;8.150;2022-12-01T03:55:42;998.33;;;2.93;100
75089;BME280;63673;49.928;8.150;2022-12-01T03:56:45;998.36;;;2.92;100
75089;BME280;63673;49.928;8.150;2022-12-01T03:57:48;998.38;;;2.92;100
75089;BME280;63673;49.928;8.150;2022-12-01T03:58:47;998.35;;;2.9;100
75089;BME280;63673;49.928;8.150;2022-12-01T03:59:49;998.33;;;2.91;100
75089;BME280;63673;49.928;8.150;2022-12-01T04:00:51;998.36;;;2.9;100
75089;BME280;63673;49.928;8.150;2022-12-01T04:01:52;998.31;;;2.9;100
75089;BME280;63673;49.928;8.150;2022-12-01T04:02:54;998.38;;;2.88;100
75089;BME280;63673;49.928;8.150;2022-12-01T04:04:02;998.35;;;2.9;100
75089;BME280;63673;49.928;8.150;2022-12-01T04:04:57;998.36;;;2.89;100
75089;BME280;63673;49.928;8.150;2022-12-01T04:05:59;998.39;;;2.88;100
75089;BME280;63673;49.928;8.150;2022-12-01T04:07:01;998.38;;;2.89;100
75089;BME280;63673;49.928;8.150;2022-12-01T04:08:03;998.38;;;2.87;100
75089;BME280;63673;49.928;8.150;2022-12-01T04:09:04;998.38;;;2.86;100
75089;BME280;63673;49.928;8.150;2022-12-01T04:10:06;998.37;;;2.86;100
75089;BME280;63673;49.928;8.150;2022-12-01T04:11:08;998.38;;;2.85;100
75089;BME280;63673;49.928;8.150;2022-12-01T04:12:11;998.37;;;2.85;100
75089;BME280;63673;49.928;8.150;2022-12-01T04:13:11;998.43;;;2.83;100
75089;BME280;63673;49.928;8.150;2022-12-01T04:14:13;998.42;;;2.83;100
75089;BME280;63673;49.928;8.150;2022-12-01T04:15:15;998.39;;;2.84;100
75089;BME280;63673;49.928;8.150;2022-12-01T04:16:17;998.4;;;2.83;100
75089;BME280;63673;49.928;8.150;2022-12-01T04:17:18;998.41;;;2.81;100
75089;BME280;63673;49.928;8.150;2022-12-01T04:18:20;998.44;;;2.82;100
75089;BME280;63673;49.928;8.150;2022-12-01T04:19:22;998.45;;;2.82;100
75089;BME280;63673;49.928;8.150;2022-12-01T04:20:23;998.47;;;2.81;100
75089;BME280;63673;49.928;8.150;2022-12-01T04:21:25;998.44;;;2.81;100
75089;BME280;63673;49.928;8.150;2022-12-01T04:22:27;998.47;;;2.81;100
75089;BME280;63673;49.928;8.150;2022-12-01T04:23:29;998.49;;;2.8;100
75089;BME280;63673;49.928;8.150;2022-12-01T04:24:30;998.44;;;2.79;100
75089;BME280;63673;49.928;8.150;2022-12-01T04:25:32;998.47;;;2.79;100
75089;BME280;63673;49.928;8.150;2022-12-01T04:26:35;998.5;;;2.79;100
75089;BME280;63673;49.928;8.150;2022-12-01T04:27:36;998.49;;;2.77;100
75089;BME280;63673;49.928;8.150;2022-12-01T04:28:37;998.49;;;2.78;100
75089;BME280;63673;49.928;8.150;2022-12-01T04:29:39;998.48;;;2.76;100
75089;BME280;63673;49.928;8.150;2022-12-01T04:30:41;998.51;;;2.77;100
75089;BME280;63673;49.928;8.150;2022-12-01T04:31:43;998.49;;;2.76;100
75089;BME280;63673;49.928;8.150;2022-12-01T04:32:44;998.51;;;2.76;100
75089;BME280;63673;49.928;8.150;2022-12-01T04:33:46;998.55;;;2.76;100
75089;BME280;63673;49.928;8.150;2022-12-01T04:34:48;998.51;;;2.76;100
75089;BME280;63673;49.928;8.150;2022-12-01T04:35:57;998.5;;;2.75;100
75089;BME280;63673;49.928;8.150;2022-12-01T04:36:51;998.53;;;2.76;100
75089;BME280;63673;49.928;8.150;2022-12-01T04:37:53;998.51;;;2.75;100
75089;BME280;63673;49.928;8.150;2022-12-01T04:38:55;998.52;;;2.76;100
75089;BME280;63673;49.928;8.150;2022-12-01T04:39:56;998.54;;;2.74;100
75089;BME280;63673;49.928;8.150;2022-12-01T04:40:58;998.51;;;2.75;100
75089;BME280;63673;49.928;8.150;2022-12-01T04:42:00;998.54;;;2.75;100
75089;BME280;63673;49.928;8.150;2022-12-01T04:43:02;998.53;;;2.75;100
75089;BME280;63673;49.928;8.150;2022-12-01T04:44:03;998.53;;;2.76;100
75089;BME280;63673;49.928;8.150;2022-12-01T04:45:05;998.45;;;2.75;100
75089;BME280;63673;49.928;8.150;2022-12-01T04:46:07;998.52;;;2.75;100
75089;BME280;63673;49.928;8.150;2022-12-01T04:47:09;998.52;;;2.75;100
75089;BME280;63673;49.928;8.150;2022-12-01T04:48:10;998.49;;;2.75;100
75089;BME280;63673;49.928;8.150;2022-12-01T04:49:12;998.52;;;2.76;100
75089;BME280;63673;49.928;8.150;2022-12-01T04:50:14;998.48;;;2.77;100
75089;BME280;63673;49.928;8.150;2022-12-01T04:51:16;998.44;;;2.77;100
75089;BME280;63673;49.928;8.150;2022-12-01T04:52:17;998.46;;;2.77;100
75089;BME280;63673;49.928;8.150;2022-12-01T04:53:19;998.46;;;2.77;100
75089;BME280;63673;49.928;8.150;2022-12-01T04:54:21;998.49;;;2.78;100
75089;BME280;63673;49.928;8.150;2022-12-01T04:55:22;998.46;;;2.78;100
75089;BME280;63673;49.928;8.150;2022-12-01T04:56:24;998.44;;;2.79;100
75089;BME280;63673;49.928;8.150;2022-12-01T04:57:26;998.45;;;2.79;100
75089;BME280;63673;49.928;8.150;2022-12-01T04:58:28;998.48;;;2.79;100
75089;BME280;63673;49.928;8.150;2022-12-01T04:59:29;998.42;;;2.78;100
75089;BME280;63673;49.928;8.150;2022-12-01T05:00:31;998.47;;;2.79;100
75089;BME280;63673;49.928;8.150;2022-12-01T05:01:33;998.47;;;2.79;100
75089;BME280;63673;49.928;8.150;2022-12-01T05:02:35;998.46;;;2.78;100
75089;BME280;63673;49.928;8.150;2022-12-01T05:03:37;998.51;;;2.77;100
75089;BME280;63673;49.928;8.150;2022-12-01T05:04:38;998.53;;;2.78;100
75089;BME280;63673;49.928;8.150;2022-12-01T05:05:40;998.54;;;2.77;100
75089;BME280;63673;49.928;8.150;2022-12-01T05:06:42;998.46;;;2.78;100
75089;BME280;63673;49.928;8.150;2022-12-01T05:07:43;998.53;;;2.77;100
75089;BME280;63673;49.928;8.150;2022-12-01T05:08:45;998.51;;;2.78;100
75089;BME280;63673;49.928;8.150;2022-12-01T05:09:47;998.49;;;2.77;100
75089;BME280;63673;49.928;8.150;2022-12-01T05:10:48;998.53;;;2.76;100
75089;BME280;63673;49.928;8.150;2022-12-01T05:11:50;998.5;;;2.76;100
75089;BME280;63673;49.928;8.150;2022-12-01T05:12:52;998.52;;;2.76;100
75089;BME280;63673;49.928;8.150;2022-12-01T05:13:54;998.48;;;2.75;100
75089;BME280;63673;49.928;8.150;2022-12-01T05:14:55;998.49;;;2.76;100
75089;BME280;63673;49.928;8.150;2022-12-01T05:16:03;998.47;;;2.75;100
75089;BME280;63673;49.928;8.150;2022-12-01T05:16:59;998.55;;;2.76;100
75089;BME280;63673;49.928;8.150;2022-12-01T05:18:01;998.56;;;2.75;100
75089;BME280;63673;49.928;8.150;2022-12-01T05:19:03;998.55;;;2.75;100
75089;BME280;63673;49.928;8.150;2022-12-01T05:20:05;998.49;;;2.74;100
75089;BME280;63673;49.928;8.150;2022-12-01T05:21:06;998.52;;;2.74;100
75089;BME280;63673;49.928;8.150;2022-12-01T05:22:08;998.53;;;2.73;100
75089;BME280;63673;49.928;8.150;2022-12-01T05:23:09;998.52;;;2.73;100
75089;BME280;63673;49.928;8.150;2022-12-01T05:24:11;998.51;;;2.73;100
75089;BME280;63673;49.928;8.150;2022-12-01T05:25:13;998.54;;;2.73;100
75089;BME280;63673;49.928;8.150;2022-12-01T05:26:14;998.49;;;2.73;100
75089;BME280;63673;49.928;8.150;2022-12-01T05:27:16;998.49;;;2.73;100
75089;BME280;63673;49.928;8.150;2022-12-01T05:28:18;998.51;;;2.72;100
75089;BME280;63673;49.928;8.150;2022-12-01T05:29:20;998.48;;;2.72;100
75089;BME280;63673;49.928;8.150;2022-12-01T05:30:22;998.5;;;2.71;100
75089;BME280;63673;49.928;8.150;2022-12-01T05:31:23;998.52;;;2.72;100
75089;BME280;63673;49.928;8.150;2022-12-01T05:32:25;998.57;;;2.71;100
75089;BME280;63673;49.928;8.150;2022-12-01T05:33:27;998.47;;;2.71;100
75089;BME280;63673;49.928;8.150;2022-12-01T05:34:28;998.48;;;2.71;100
75089;BME280;63673;49.928;8.150;2022-12-01T05:35:31;998.47;;;2.7;100
75089;BME280;63673;49.928;8.150;2022-12-01T05:36:32;998.51;;;2.7;100
75089;BME280;63673;49.928;8.150;2022-12-01T05:37:34;998.53;;;2.7;100
75089;BME280;63673;49.928;8.150;2022-12-01T05:38:35;998.52;;;2.69;100
75089;BME280;63673;49.928;8.150;2022-12-01T05:39:37;998.48;;;2.69;100
75089;BME280;63673;49.928;8.150;2022-12-01T05:40:39;998.56;;;2.66;100
75089;BME280;63673;49.928;8.150;2022-12-01T05:41:40;998.51;;;2.66;100
75089;BME280;63673;49.928;8.150;2022-12-01T05:42:42;998.56;;;2.65;100
75089;BME280;63673;49.928;8.150;2022-12-01T05:43:44;998.58;;;2.64;100
75089;BME280;63673;49.928;8.150;2022-12-01T05:44:46;998.6;;;2.62;100
75089;BME280;63673;49.928;8.150;2022-12-01T05:45:47;998.57;;;2.62;100
75089;BME280;63673;49.928;8.150;2022-12-01T05:46:49;998.61;;;2.61;100
75089;BME280;63673;49.928;8.150;2022-12-01T05:47:53;998.59;;;2.59;100
75089;BME280;63673;49.928;8.150;2022-12-01T05:48:53;998.6;;;2.59;100
75089;BME280;63673;49.928;8.150;2022-12-01T05:49:54;998.6;;;2.59;100
75089;BME280;63673;49.928;8.150;2022-12-01T05:50:56;998.57;;;2.58;100
75089;BME280;63673;49.928;8.150;2022-12-01T05:51:58;998.6;;;2.57;100
75089;BME280;63673;49.928;8.150;2022-12-01T05:53:00;998.59;;;2.57;100